Time;durP1;ratioP1;P1;durP2;ratioP2;P2;SDS_P1;SDS_P2;PMS_P1;PMS_P2;Temp;Humidity;BMP_temperature;BMP_pressure;BME280_temperature;BME280_humidity;BME280_pressure;Samples;Min_cycle;Max_cycle;Signal;HPM_P1;HPM_P2
2021/12/06 00:00:51;;;;;;;;;7.50;6.75;;;;;7.41;100.00;100829.53;5000790;28;46476;-78
2021/12/06 00:03:25;;;;;;;;;5.00;3.50;;;;;7.43;100.00;100820.19;5018907;28;45341;-83
2021/12/06 00:05:51;;;;;;;;;3.00;3.00;;;;;7.36;100.00;100816.38;5001059;28;45311;-82
2021/12/06 00:08:16;;;;;;;;;3.00;3.00;;;;;7.40;100.00;100820.88;5020312;28;45233;-81
2021/12/06 00:10:42;;;;;;;;;3.00;2.25;;;;;7.35;100.00;100824.91;5021544;28;45625;-86
2021/12/06 00:13:08;;;;;;;;;3.75;3.00;;;;;7.31;100.00;100825.50;5019575;28;45304;-78
2021/12/06 00:15:34;;;;;;;;;5.50;3.00;;;;;7.30;100.00;100820.28;5019177;28;45456;-79
2021/12/06 00:18:00;;;;;;;;;6.00;3.00;;;;;7.41;100.00;100838.13;5019276;28;45489;-84
2021/12/06 00:20:26;;;;;;;;;3.75;2.50;;;;;7.38;100.00;100834.50;5018806;28;45940;-86
2021/12/06 00:22:52;;;;;;;;;4.00;3.25;;;;;7.34;100.00;100830.84;5000989;28;45476;-84
2021/12/06 00:25:18;;;;;;;;;4.00;4.00;;;;;7.39;100.00;100832.03;5023089;28;45263;-80
2021/12/06 00:27:44;;;;;;;;;7.25;4.50;;;;;7.39;100.00;100829.44;5021455;28;45363;-80
2021/12/06 00:30:15;;;;;;;;;7.50;3.75;;;;;7.39;100.00;100829.44;5022688;28;45272;-86
2021/12/06 00:32:41;;;;;;;;;5.75;5.50;;;;;7.37;100.00;100824.97;5019336;28;45874;-86
2021/12/06 00:35:12;;;;;;;;;7.00;7.00;;;;;7.39;100.00;100837.16;5018955;28;45375;-87
2021/12/06 00:37:45;;;;;;;;;6.75;6.75;;;;;7.43;100.00;100840.81;5019231;28;45435;-86
2021/12/06 00:40:11;;;;;;;;;7.50;5.25;;;;;7.48;100.00;100849.69;5019745;28;46182;-86
2021/12/06 00:42:37;;;;;;;;;8.25;7.75;;;;;7.41;100.00;100840.69;5019987;28;45237;-87
2021/12/06 00:45:06;;;;;;;;;6.75;4.50;;;;;7.44;100.00;100846.03;5019384;28;45463;-86
2021/12/06 00:47:32;;;;;;;;;5.75;4.00;;;;;7.56;100.00;100866.44;5019252;28;45363;-87
2021/12/06 00:49:58;;;;;;;;;8.25;5.25;;;;;7.51;100.00;100851.53;5019060;28;45795;-82
2021/12/06 00:52:24;;;;;;;;;6.00;6.00;;;;;7.60;100.00;100867.53;5018638;28;45248;-79
2021/12/06 00:54:50;;;;;;;;;3.75;3.75;;;;;7.53;100.00;100866.31;5017791;28;45209;-79
2021/12/06 00:57:16;;;;;;;;;7.25;4.50;;;;;7.58;100.00;100874.28;5018199;28;45366;-79
2021/12/06 00:59:43;;;;;;;;;3.00;3.00;;;;;7.62;100.00;100876.22;5017630;28;45481;-78
2021/12/06 01:02:11;;;;;;;;;3.50;3.50;;;;;7.64;100.00;100879.78;5017635;28;45473;-78
2021/12/06 01:04:38;;;;;;;;;5.00;5.00;;;;;7.67;100.00;100886.78;4999935;28;45376;-78
2021/12/06 01:07:05;;;;;;;;;5.25;4.50;;;;;7.65;100.00;100881.56;5018072;28;45273;-78
2021/12/06 01:09:31;;;;;;;;;4.00;3.25;;;;;7.67;100.00;100892.84;5017341;28;46137;-78
2021/12/06 01:11:57;;;;;;;;;7.00;3.00;;;;;7.70;100.00;100889.56;5017973;28;45396;-79
2021/12/06 01:14:23;;;;;;;;;6.75;4.50;;;;;7.66;100.00;100878.19;5018001;28;45415;-79
2021/12/06 01:16:49;;;;;;;;;8.25;7.00;;;;;7.68;100.00;100886.00;5017483;28;45250;-78
2021/12/06 01:19:15;;;;;;;;;5.50;5.25;;;;;7.78;100.00;100900.31;5017409;28;45430;-79
2021/12/06 01:21:54;;;;;;;;;7.25;5.25;;;;;7.82;100.00;100910.03;5017186;28;45449;-79
2021/12/06 01:24:27;;;;;;;;;4.25;4.00;;;;;7.83;100.00;100910.09;5001968;28;45387;-78
2021/12/06 01:27:28;;;;;;;;;9.50;7.00;;;;;7.74;100.00;100896.69;5018478;28;45339;-80
2021/12/06 01:40:36;;;;;;;;;7.25;4.50;;;;;7.67;100.00;100912.56;5025810;28;45798;-82
2021/12/06 01:43:06;;;;;;;;;2.00;2.00;;;;;7.61;100.00;100913.13;5023055;28;45288;-83
2021/12/06 01:45:31;;;;;;;;;6.75;3.75;;;;;7.55;100.00;100905.94;5019546;28;45237;-86
2021/12/06 01:47:57;;;;;;;;;4.00;4.00;;;;;7.63;100.00;100921.81;5018451;28;45487;-84
2021/12/06 01:50:27;;;;;;;;;3.75;3.75;;;;;7.68;100.00;100930.72;5018103;28;45417;-82
2021/12/06 01:52:57;;;;;;;;;3.00;3.00;;;;;7.69;100.00;100940.22;5018772;28;45253;-84
2021/12/06 01:55:30;;;;;;;;;4.00;3.00;;;;;7.64;100.00;100933.03;5017763;28;45469;-86
2021/12/06 01:58:00;;;;;;;;;4.75;3.00;;;;;7.47;100.00;100917.44;5017982;28;45375;-84
2021/12/06 02:00:45;;;;;;;;;5.25;5.25;;;;;7.65;100.00;100945.13;5017759;28;45395;-84
2021/12/06 02:03:12;;;;;;;;;3.75;3.50;;;;;7.68;100.00;100963.31;4999872;28;45912;-85
2021/12/06 02:05:41;;;;;;;;;5.00;3.25;;;;;7.64;100.00;100953.66;5020325;28;45280;-85
2021/12/06 02:08:08;;;;;;;;;6.25;3.25;;;;;7.72;100.00;100960.13;5020882;28;45629;-86
2021/12/06 02:10:35;;;;;;;;;5.50;5.50;;;;;7.69;100.00;100959.94;5017053;28;46172;-84
2021/12/06 02:13:02;;;;;;;;;7.75;4.50;;;;;7.64;100.00;100946.78;5018285;28;45799;-85
2021/12/06 02:15:49;;;;;;;;;6.00;6.00;;;;;7.62;100.00;100950.06;5021342;28;45256;-79
2021/12/06 02:21:10;;;;;;;;;9.25;6.00;;;;;7.65;100.00;100971.75;5020679;28;45931;-83
2021/12/06 02:23:36;;;;;;;;;5.50;4.25;;;;;7.67;100.00;100979.56;5022154;28;45230;-87
2021/12/06 02:26:02;;;;;;;;;5.75;5.00;;;;;7.68;100.00;100960.72;5000416;28;45410;-86
2021/12/06 02:28:28;;;;;;;;;3.50;3.50;;;;;7.63;100.00;100960.47;5017271;28;45357;-82
2021/12/06 02:30:54;;;;;;;;;7.00;5.50;;;;;7.59;100.00;100945.66;5017076;28;45379;-87
2021/12/06 02:33:21;;;;;;;;;4.25;4.25;;;;;7.69;100.00;100972.81;5016751;28;45477;-84
2021/12/06 02:35:47;;;;;;;;;3.00;3.00;;;;;7.68;100.00;100966.78;4998834;28;45483;-85
2021/12/06 02:38:13;;;;;;;;;6.00;3.00;;;;;7.72;100.00;100975.59;5017369;28;45209;-86
2021/12/06 02:40:39;;;;;;;;;4.75;4.00;;;;;7.67;100.00;100967.59;5016651;28;45579;-83
2021/12/06 02:43:07;;;;;;;;;3.00;3.00;;;;;7.61;100.00;100971.50;5019739;28;45743;-85
2021/12/06 02:45:33;;;;;;;;;6.25;3.75;;;;;7.55;100.00;100970.34;5021266;28;45316;-87
2021/12/06 02:48:03;;;;;;;;;6.00;5.25;;;;;7.56;100.00;100963.50;5017837;28;45426;-83
2021/12/06 02:50:39;;;;;;;;;4.00;4.00;;;;;7.40;100.00;100957.41;5016474;28;45500;-86
2021/12/06 02:53:05;;;;;;;;;2.75;2.75;;;;;7.50;100.00;100976.03;5016803;28;45333;-85
2021/12/06 02:55:35;;;;;;;;;5.25;3.00;;;;;7.48;100.00;100964.72;4998012;28;45435;-82
2021/12/06 02:58:15;;;;;;;;;4.25;3.00;;;;;7.46;100.00;100950.84;5017132;28;45419;-87
2021/12/06 03:00:45;;;;;;;;;7.00;4.00;;;;;7.52;100.00;100961.50;5021887;28;46315;-82
2021/12/06 03:03:10;;;;;;;;;3.75;3.25;;;;;7.56;100.00;100971.22;5019396;28;46032;-80
2021/12/06 03:05:36;;;;;;;;;3.25;3.25;;;;;7.52;100.00;100976.97;5020167;28;45333;-86
2021/12/06 03:08:04;;;;;;;;;8.00;5.50;;;;;7.59;100.00;100999.75;5020841;28;45431;-87
2021/12/06 03:10:30;;;;;;;;;5.00;3.75;;;;;7.60;100.00;100996.38;5020106;28;45463;-84
2021/12/06 03:12:55;;;;;;;;;6.50;2.50;;;;;7.59;100.00;100998.06;5020368;28;45254;-84
2021/12/06 03:15:23;;;;;;;;;3.25;3.25;;;;;7.56;100.00;100992.69;5020517;28;45356;-81
2021/12/06 03:17:49;;;;;;;;;5.50;3.00;;;;;7.61;100.00;101004.97;5021010;28;45341;-79
2021/12/06 03:20:16;;;;;;;;;3.25;3.00;;;;;7.56;100.00;101002.13;5019756;28;45820;-81
2021/12/06 03:22:44;;;;;;;;;6.50;4.75;;;;;7.61;100.00;101016.19;5020179;28;45932;-83
2021/12/06 03:25:12;;;;;;;;;5.50;4.00;;;;;7.61;100.00;101012.72;5019992;28;45309;-81
2021/12/06 03:27:38;;;;;;;;;1.00;0.00;;;;;7.54;100.00;101002.06;5020042;28;45427;-82
2021/12/06 03:30:08;;;;;;;;;6.25;4.50;;;;;7.53;100.00;101004.50;5019707;28;45419;-81
2021/12/06 03:32:34;;;;;;;;;8.50;6.25;;;;;7.59;100.00;101017.78;5020030;28;45194;-86
2021/12/06 03:35:00;;;;;;;;;6.50;4.00;;;;;7.58;100.00;101016.88;5020047;28;45260;-87
2021/12/06 03:37:26;;;;;;;;;4.75;4.00;;;;;7.58;100.00;101000.53;5020756;28;45471;-87
2021/12/06 03:39:52;;;;;;;;;7.00;3.00;;;;;7.64;100.00;101000.91;5026429;28;45284;-88
2021/12/06 03:42:21;;;;;;;;;3.50;3.50;;;;;7.65;100.00;101012.13;5027123;28;45411;-84
2021/12/06 03:44:48;;;;;;;;;7.50;6.00;;;;;7.67;100.00;101010.50;5007826;28;45554;-86
2021/12/06 03:47:28;;;;;;;;;5.00;4.25;;;;;7.73;100.00;101016.03;5021229;28;45266;-88
2021/12/06 03:49:55;;;;;;;;;4.50;4.00;;;;;7.68;100.00;101009.69;5020629;28;45501;-80
2021/12/06 03:52:21;;;;;;;;;6.25;3.50;;;;;7.70;100.00;101019.31;5020429;28;45386;-79
2021/12/06 03:54:47;;;;;;;;;3.50;3.00;;;;;7.72;100.00;101022.84;5026312;28;45355;-78
2021/12/06 03:57:12;;;;;;;;;7.00;4.00;;;;;7.63;100.00;101019.72;5023994;28;45629;-80
2021/12/06 03:59:38;;;;;;;;;5.25;4.00;;;;;7.63;100.00;101017.16;5019667;28;45387;-78
2021/12/06 04:02:04;;;;;;;;;4.00;4.00;;;;;7.62;100.00;101030.84;5022917;28;45218;-80
2021/12/06 04:04:30;;;;;;;;;4.25;4.25;;;;;7.69;100.00;101035.59;5019298;28;45308;-81
2021/12/06 04:06:56;;;;;;;;;6.50;4.75;;;;;7.64;100.00;101029.25;5019382;28;45244;-80
2021/12/06 04:09:29;;;;;;;;;4.75;4.00;;;;;7.68;100.00;101041.53;5018867;28;46099;-80
2021/12/06 04:11:55;;;;;;;;;5.00;5.00;;;;;7.63;100.00;101044.63;5001120;28;45649;-81
2021/12/06 04:14:21;;;;;;;;;6.00;2.75;;;;;7.69;100.00;101051.03;5000629;28;45336;-79
2021/12/06 04:16:47;;;;;;;;;4.75;4.50;;;;;7.57;100.00;101033.13;5001105;28;45508;-80
2021/12/06 04:19:13;;;;;;;;;6.75;4.00;;;;;7.68;100.00;101063.81;5019525;28;45477;-79
2021/12/06 04:21:41;;;;;;;;;9.00;6.00;;;;;7.67;100.00;101059.44;5018893;28;45355;-79
2021/12/06 04:24:07;;;;;;;;;5.50;3.00;;;;;7.71;100.00;101069.16;5018729;28;45389;-79
2021/12/06 04:26:33;;;;;;;;;6.25;5.00;;;;;7.65;100.00;101054.22;5018740;28;45364;-80
2021/12/06 04:29:01;;;;;;;;;6.50;4.00;;;;;7.73;100.00;101080.47;5018434;28;45958;-77
2021/12/06 04:31:30;;;;;;;;;4.00;4.00;;;;;7.66;100.00;101058.59;5019176;28;45356;-81
2021/12/06 04:33:56;;;;;;;;;7.50;7.25;;;;;7.61;100.00;101048.78;5019512;28;45399;-77
2021/12/06 04:36:22;;;;;;;;;4.75;4.25;;;;;7.64;100.00;101059.28;5001283;28;45359;-78
2021/12/06 04:38:48;;;;;;;;;6.25;4.25;;;;;7.63;100.00;101071.25;5018096;28;46164;-77
2021/12/06 04:41:13;;;;;;;;;3.50;3.00;;;;;7.68;100.00;101087.91;5018309;28;45356;-77
2021/12/06 04:43:39;;;;;;;;;4.50;4.00;;;;;7.65;100.00;101077.41;5018147;28;45328;-79
2021/12/06 04:46:05;;;;;;;;;2.00;2.00;;;;;7.73;100.00;101106.25;5018506;28;45562;-78
2021/12/06 04:48:31;;;;;;;;;7.00;4.25;;;;;7.63;100.00;101091.88;5017904;28;46331;-78
2021/12/06 04:50:56;;;;;;;;;7.00;5.25;;;;;7.67;100.00;101092.97;5018550;28;45254;-80
2021/12/06 04:53:26;;;;;;;;;6.25;5.75;;;;;7.61;100.00;101095.16;5017935;28;45475;-81
2021/12/06 04:56:00;;;;;;;;;6.00;4.50;;;;;7.57;100.00;101088.94;5018435;28;45316;-79
2021/12/06 04:58:30;;;;;;;;;3.25;3.25;;;;;7.58;100.00;101085.56;5019282;28;46221;-80
2021/12/06 05:01:08;;;;;;;;;5.00;5.00;;;;;7.55;100.00;101081.13;5018358;28;45912;-81
2021/12/06 05:03:35;;;;;;;;;4.00;3.00;;;;;7.63;100.00;101107.34;5017740;28;45273;-81
2021/12/06 05:06:06;;;;;;;;;4.50;4.50;;;;;7.59;100.00;101102.81;5000149;28;45437;-82
2021/12/06 05:08:36;;;;;;;;;4.50;3.00;;;;;7.70;100.00;101127.56;5017792;28;45273;-78
2021/12/06 05:11:05;;;;;;;;;2.75;2.75;;;;;7.65;100.00;101118.66;5018257;28;45392;-78
2021/12/06 05:13:37;;;;;;;;;4.00;3.00;;;;;7.69;100.00;101119.72;5018062;28;45174;-83
2021/12/06 05:16:03;;;;;;;;;5.75;5.00;;;;;7.63;100.00;101109.91;5018419;28;45391;-80
2021/12/06 05:18:28;;;;;;;;;3.75;2.50;;;;;7.56;100.00;101095.75;5017178;28;45379;-79
2021/12/06 05:20:54;;;;;;;;;3.00;3.00;;;;;7.73;100.00;101116.53;5018032;28;45358;-85
2021/12/06 05:23:20;;;;;;;;;6.25;4.75;;;;;7.78;100.00;101119.41;5000659;28;45290;-86
2021/12/06 05:25:46;;;;;;;;;6.25;3.25;;;;;7.72;100.00;101107.91;4999393;28;45509;-87
2021/12/06 05:28:12;;;;;;;;;3.00;3.00;;;;;7.78;100.00;101120.28;5018284;28;45526;-87
2021/12/06 05:30:40;;;;;;;;;4.75;2.00;;;;;7.88;100.00;101132.94;5018107;28;45460;-85
2021/12/06 05:33:17;;;;;;;;;5.25;4.00;;;;;7.96;100.00;101148.00;5020212;28;45463;-87
2021/12/06 05:35:44;;;;;;;;;4.50;4.00;;;;;7.98;100.00;101147.28;5020608;28;45346;-81
2021/12/06 05:38:09;;;;;;;;;5.25;3.25;;;;;8.02;100.00;101150.94;5018502;28;46365;-85
2021/12/06 05:40:35;;;;;;;;;4.25;2.00;;;;;7.98;100.00;101143.81;5017443;28;45282;-82
2021/12/06 05:43:02;;;;;;;;;5.00;3.00;;;;;8.05;100.00;101146.84;5017722;28;45226;-86
2021/12/06 05:45:31;;;;;;;;;7.00;4.00;;;;;8.11;100.00;101151.47;5018003;28;45363;-81
2021/12/06 05:47:56;;;;;;;;;5.25;3.75;;;;;8.09;100.00;101159.94;5020050;28;45458;-84
2021/12/06 05:50:23;;;;;;;;;4.50;3.75;;;;;7.99;100.00;101149.06;5018967;28;45499;-86
2021/12/06 05:52:53;;;;;;;;;5.00;4.50;;;;;8.04;100.00;101149.34;5018795;28;45622;-86
2021/12/06 05:55:19;;;;;;;;;7.00;4.75;;;;;8.02;100.00;101153.50;5018035;28;45532;-84
2021/12/06 05:57:45;;;;;;;;;6.50;5.25;;;;;7.97;100.00;101150.66;5017358;28;46149;-89
2021/12/06 06:00:14;;;;;;;;;4.75;4.25;;;;;8.05;100.00;101157.16;5021947;28;45310;-90
2021/12/06 06:02:40;;;;;;;;;3.50;3.50;;;;;7.99;100.00;101146.47;5018600;28;45242;-90
2021/12/06 06:05:08;;;;;;;;;7.00;3.00;;;;;8.13;100.00;101161.91;5020238;28;45229;-88
2021/12/06 06:07:34;;;;;;;;;5.00;4.50;;;;;8.12;100.00;101157.53;5028948;28;46254;-79
2021/12/06 06:10:00;;;;;;;;;7.75;6.75;;;;;8.18;100.00;101174.28;5033165;28;45356;-80
2021/12/06 06:12:25;;;;;;;;;7.25;5.25;;;;;8.12;100.00;101173.91;5036081;28;44771;-86
2021/12/06 06:14:54;;;;;;;;;6.00;6.00;;;;;8.13;100.00;101186.00;5027759;28;45442;-83
2021/12/06 06:17:21;;;;;;;;;8.00;5.00;;;;;8.13;100.00;101183.41;5021429;28;45357;-77
2021/12/06 06:19:51;;;;;;;;;5.00;4.00;;;;;8.10;100.00;101180.63;5016166;28;45244;-81
2021/12/06 06:22:17;;;;;;;;;11.50;8.00;;;;;8.06;100.00;101184.72;5015965;28;45470;-81
2021/12/06 06:24:43;;;;;;;;;4.50;4.50;;;;;7.98;100.00;101175.63;5016019;28;45478;-77
2021/12/06 06:27:08;;;;;;;;;8.75;5.00;;;;;8.01;100.00;101181.00;5015936;28;46095;-83
2021/12/06 06:29:35;;;;;;;;;4.75;4.75;;;;;7.88;100.00;101161.28;5020028;28;45228;-77
2021/12/06 06:32:02;;;;;;;;;5.75;4.00;;;;;7.95;100.00;101174.56;5020092;28;45154;-82
2021/12/06 06:34:28;;;;;;;;;6.00;4.00;;;;;7.66;100.00;101145.31;5018947;28;45602;-78
2021/12/06 06:36:55;;;;;;;;;8.50;4.25;;;;;7.90;100.00;101190.63;5016936;28;45919;-79
2021/12/06 06:39:21;;;;;;;;;5.00;4.00;;;;;7.93;100.00;101195.13;5000124;28;45865;-82
2021/12/06 06:41:51;;;;;;;;;8.50;6.00;;;;;7.95;100.00;101193.50;5018987;28;45338;-89
2021/12/06 06:44:17;;;;;;;;;6.25;4.50;;;;;7.97;100.00;101197.06;5017747;28;45232;-77
2021/12/06 06:46:45;;;;;;;;;10.75;7.75;;;;;7.97;100.00;101185.88;5015833;28;46059;-79
2021/12/06 06:49:12;;;;;;;;;7.25;4.50;;;;;7.97;100.00;101194.47;5015963;28;45428;-80
2021/12/06 06:51:38;;;;;;;;;9.50;8.25;;;;;7.99;100.00;101197.19;5015032;28;45506;-77
2021/12/06 06:54:05;;;;;;;;;10.00;8.00;;;;;7.96;100.00;101195.28;5016355;28;45594;-78
2021/12/06 06:56:32;;;;;;;;;4.50;4.25;;;;;7.97;100.00;101211.66;5016665;28;46118;-74
2021/12/06 06:58:57;;;;;;;;;10.00;5.00;;;;;7.87;100.00;101213.66;5016745;28;45835;-80
2021/12/06 07:01:24;;;;;;;;;10.25;7.25;;;;;7.90;100.00;101223.28;5015776;28;45365;-76
2021/12/06 07:03:53;;;;;;;;;9.25;8.00;;;;;7.88;100.00;101228.31;5015424;28;45314;-75
2021/12/06 07:06:20;;;;;;;;;8.25;7.00;;;;;7.85;100.00;101228.16;5016459;28;46151;-74
2021/12/06 07:08:46;;;;;;;;;7.50;5.50;;;;;7.77;100.00;101221.63;5016053;28;45237;-75
2021/12/06 07:11:12;;;;;;;;;5.00;5.00;;;;;7.83;100.00;101226.28;5014885;28;45404;-74
2021/12/06 07:13:40;;;;;;;;;10.25;5.50;;;;;7.89;100.00;101229.22;5015461;28;45227;-76
2021/12/06 07:16:07;;;;;;;;;8.75;5.50;;;;;7.89;100.00;101231.78;5015644;28;46230;-75
2021/12/06 07:18:33;;;;;;;;;5.00;5.00;;;;;7.88;100.00;101232.59;5018022;28;45925;-74
2021/12/06 07:20:59;;;;;;;;;10.00;8.00;;;;;7.86;100.00;101234.19;5015674;28;45360;-76
2021/12/06 07:23:25;;;;;;;;;8.00;8.00;;;;;7.82;100.00;101230.53;5016164;28;45623;-77
2021/12/06 07:25:50;;;;;;;;;8.25;8.25;;;;;7.91;100.00;101245.69;5014863;28;45411;-76
2021/12/06 07:28:16;;;;;;;;;8.25;8.00;;;;;7.67;100.00;101198.63;5015897;28;45349;-75
2021/12/06 07:30:42;;;;;;;;;7.00;7.00;;;;;7.96;100.00;101257.16;4998362;28;45381;-82
2021/12/06 07:33:08;;;;;;;;;7.00;3.50;;;;;7.93;100.00;101256.06;5017263;28;45267;-77
2021/12/06 07:35:33;;;;;;;;;7.25;5.50;;;;;7.89;100.00;101249.84;5018451;28;45557;-80
2021/12/06 07:38:03;;;;;;;;;11.00;9.25;;;;;7.85;100.00;101238.44;5014772;28;45447;-80
2021/12/06 07:40:29;;;;;;;;;14.50;10.25;;;;;7.80;100.00;101233.81;5016516;28;45327;-75
2021/12/06 07:42:55;;;;;;;;;9.75;7.00;;;;;7.93;100.00;101253.50;5015905;28;45600;-77
2021/12/06 07:45:21;;;;;;;;;9.25;7.50;;;;;7.88;100.00;101243.78;5015549;28;46048;-77
2021/12/06 07:47:47;;;;;;;;;10.50;8.75;;;;;7.94;100.00;101238.13;5014584;28;45185;-77
2021/12/06 07:50:16;;;;;;;;;8.00;7.00;;;;;7.97;100.00;101248.63;5015539;28;45819;-84
2021/12/06 07:52:43;;;;;;;;;8.00;8.00;;;;;7.94;100.00;101240.69;5000020;28;45442;-78
2021/12/06 07:55:13;;;;;;;;;10.25;9.75;;;;;8.02;100.00;101254.06;5017855;28;45379;-81
2021/12/06 07:57:40;;;;;;;;;10.00;9.00;;;;;8.01;100.00;101258.34;5018775;28;45989;-83
2021/12/06 08:00:10;;;;;;;;;12.00;11.75;;;;;7.99;100.00;101252.19;5017900;28;45384;-75
2021/12/06 08:02:35;;;;;;;;;14.75;11.00;;;;;7.97;100.00;101240.03;5018009;28;45389;-76
2021/12/06 08:07:46;;;;;;;;;15.75;13.25;;;;;8.11;100.00;101248.59;5018363;28;45217;-82
2021/12/06 08:10:12;;;;;;;;;16.00;12.25;;;;;8.11;100.00;101241.75;5018491;28;45518;-83
2021/12/06 08:12:38;;;;;;;;;18.50;15.50;;;;;8.06;100.00;101230.28;5021804;28;45416;-82
2021/12/06 08:15:04;;;;;;;;;16.00;15.00;;;;;8.13;100.00;101242.72;5017836;28;45832;-78
2021/12/06 08:17:30;;;;;;;;;16.50;12.00;;;;;8.10;100.00;101234.78;5018057;28;45442;-78
2021/12/06 08:19:55;;;;;;;;;11.00;10.25;;;;;8.04;100.00;101224.13;5019528;28;45376;-78
2021/12/06 08:22:21;;;;;;;;;13.50;12.25;;;;;8.21;100.00;101249.25;5019810;28;45412;-77
2021/12/06 08:24:47;;;;;;;;;11.50;10.00;;;;;8.24;100.00;101229.59;5020381;28;46115;-78
2021/12/06 08:27:15;;;;;;;;;10.25;10.00;;;;;8.27;100.00;101211.75;5019335;28;45277;-79
2021/12/06 08:29:42;;;;;;;;;9.25;9.25;;;;;8.31;100.00;101211.13;5018120;28;45282;-79
2021/12/06 08:32:09;;;;;;;;;11.25;10.00;;;;;8.20;100.00;101195.00;5018543;28;45511;-83
2021/12/06 08:34:34;;;;;;;;;10.75;9.75;;;;;8.20;100.00;101200.16;5017545;28;45922;-79
2021/12/06 08:37:01;;;;;;;;;10.00;9.00;;;;;8.40;100.00;101223.69;5017860;28;45380;-79
2021/12/06 08:39:27;;;;;;;;;14.75;11.00;;;;;8.50;100.00;101238.94;5018182;28;45419;-81
2021/12/06 08:41:53;;;;;;;;;11.75;9.00;;;;;8.37;100.00;101217.53;5018537;28;45435;-78
2021/12/06 08:44:18;;;;;;;;;10.75;9.00;;;;;8.44;100.00;101223.97;5017359;28;46054;-79
2021/12/06 08:46:44;;;;;;;;;10.00;9.00;;;;;8.51;100.00;101240.72;5017310;28;45254;-80
2021/12/06 08:49:10;;;;;;;;;12.25;8.00;;;;;8.41;100.00;101208.31;5018038;28;45262;-81
2021/12/06 08:51:41;;;;;;;;;13.25;11.25;;;;;8.57;100.00;101220.47;5018672;28;45226;-78
2021/12/06 08:54:09;;;;;;;;;12.50;8.75;;;;;8.55;100.00;101206.59;4999784;28;45598;-82
2021/12/06 08:56:36;;;;;;;;;12.25;10.00;;;;;8.64;100.00;101212.28;5017689;28;45260;-82
2021/12/06 08:59:03;;;;;;;;;8.50;8.50;;;;;8.63;100.00;101213.06;5018410;28;45264;-82
2021/12/06 09:01:32;;;;;;;;;10.75;8.50;;;;;8.69;100.00;101216.84;5016712;28;45459;-80
2021/12/06 09:03:58;;;;;;;;;12.50;10.50;;;;;8.66;100.00;101214.94;5018148;28;45384;-79
2021/12/06 09:06:24;;;;;;;;;14.75;11.00;;;;;8.61;100.00;101196.59;5018125;28;45508;-78
2021/12/06 09:08:50;;;;;;;;;9.50;9.50;;;;;8.66;100.00;101197.78;5017569;28;45262;-78
2021/12/06 09:11:15;;;;;;;;;8.00;8.00;;;;;8.77;100.00;101229.38;5018001;28;45367;-80
2021/12/06 09:13:42;;;;;;;;;12.00;10.00;;;;;8.61;100.00;101195.72;5000983;28;47783;-80
2021/12/06 09:16:10;;;;;;;;;9.75;9.75;;;;;8.80;100.00;101223.53;5017778;28;46056;-81
2021/12/06 09:18:39;;;;;;;;;16.00;10.50;;;;;8.70;100.00;101216.00;5019889;28;45317;-81
2021/12/06 09:21:10;;;;;;;;;12.25;12.00;;;;;8.72;100.00;101229.91;5019192;28;45288;-83
2021/12/06 09:23:40;;;;;;;;;10.00;9.25;;;;;8.71;100.00;101244.53;4999674;28;45487;-78
2021/12/06 09:26:06;;;;;;;;;7.00;7.00;;;;;8.64;100.00;101224.28;5017334;28;45175;-79
2021/12/06 09:28:33;;;;;;;;;10.00;5.25;;;;;8.55;100.00;101200.50;5018463;28;45288;-81
2021/12/06 09:31:01;;;;;;;;;8.75;7.75;;;;;8.59;100.00;101230.88;5021065;28;45499;-83
2021/12/06 09:33:28;;;;;;;;;10.00;8.25;;;;;8.41;100.00;101220.31;5022051;28;45392;-86
2021/12/06 09:35:57;;;;;;;;;9.00;7.50;;;;;8.44;100.00;101216.22;5020822;28;45728;-89
2021/12/06 09:38:27;;;;;;;;;8.00;7.25;;;;;8.59;100.00;101229.16;5020638;28;45250;-82
2021/12/06 09:40:54;;;;;;;;;9.00;9.00;;;;;8.61;100.00;101227.56;5019741;28;45610;-84
2021/12/06 09:43:20;;;;;;;;;8.50;8.50;;;;;8.65;100.00;101224.38;5018166;28;45283;-85
2021/12/06 09:45:47;;;;;;;;;9.25;8.25;;;;;8.71;100.00;101220.38;5017969;28;45341;-85
2021/12/06 09:48:16;;;;;;;;;9.50;9.00;;;;;8.71;100.00;101226.44;5017926;28;45377;-86
2021/12/06 09:50:46;;;;;;;;;9.50;7.75;;;;;8.74;100.00;101231.81;5017459;28;45615;-86
2021/12/06 09:53:16;;;;;;;;;9.50;9.00;;;;;8.73;100.00;101223.94;4999350;28;47535;-79
2021/12/06 09:55:45;;;;;;;;;8.75;8.75;;;;;8.73;100.00;101224.84;5017031;28;45430;-79
2021/12/06 09:58:11;;;;;;;;;9.50;8.50;;;;;8.68;100.00;101213.34;5016849;28;45230;-78
2021/12/06 10:00:43;;;;;;;;;11.00;9.00;;;;;8.75;100.00;101219.78;5017027;28;45486;-85
2021/12/06 10:03:10;;;;;;;;;14.75;10.50;;;;;8.76;100.00;101224.13;5016623;28;45431;-79
2021/12/06 10:05:36;;;;;;;;;11.50;11.00;;;;;8.80;100.00;101223.53;5016516;28;45192;-79
2021/12/06 10:08:03;;;;;;;;;9.00;8.75;;;;;8.74;100.00;101217.97;5017359;28;45244;-78
2021/12/06 10:10:31;;;;;;;;;11.00;10.50;;;;;8.76;100.00;101225.00;5017425;28;45551;-77
2021/12/06 10:12:58;;;;;;;;;11.75;9.75;;;;;8.73;100.00;101206.78;5016571;28;45465;-77
2021/12/06 10:15:26;;;;;;;;;11.00;9.00;;;;;8.82;100.00;101206.41;5017472;28;45239;-78
2021/12/06 10:17:54;;;;;;;;;9.75;9.75;;;;;8.81;100.00;101195.19;5016834;28;45403;-84
2021/12/06 10:20:20;;;;;;;;;17.25;12.00;;;;;8.91;100.00;101198.31;5016889;28;45429;-80
2021/12/06 10:22:46;;;;;;;;;13.00;11.00;;;;;8.86;100.00;101174.81;5016506;28;45395;-80
2021/12/06 10:25:12;;;;;;;;;12.25;10.25;;;;;8.93;100.00;101176.94;5017141;28;45476;-79
2021/12/06 10:27:37;;;;;;;;;7.25;7.25;;;;;8.97;100.00;101181.47;5016430;28;45444;-87
2021/12/06 10:30:10;;;;;;;;;11.75;11.00;;;;;8.90;100.00;101162.97;5016947;28;45570;-87
2021/12/06 10:32:39;;;;;;;;;12.25;9.50;;;;;9.04;100.00;101180.13;5017680;28;46225;-87
2021/12/06 10:35:10;;;;;;;;;10.25;10.00;;;;;9.01;100.00;101154.13;5018530;28;45247;-86
2021/12/06 10:37:53;;;;;;;;;16.50;12.50;;;;;9.06;100.00;101155.31;5014959;28;45294;-77
2021/12/06 10:40:25;;;;;;;;;11.25;9.50;;;;;9.12;100.00;101147.88;5022733;28;45276;-78
2021/12/06 10:42:52;;;;;;;;;9.75;9.50;;;;;9.11;100.00;101140.06;5019135;28;46369;-79
2021/12/06 10:45:24;;;;;;;;;13.50;12.00;;;;;9.17;100.00;101144.69;5016780;28;45437;-77
2021/12/06 10:48:11;;;;;;;;;11.75;9.00;;;;;9.21;100.00;101152.69;5016683;28;45258;-81
2021/12/06 10:50:43;;;;;;;;;13.00;10.00;;;;;9.20;100.00;101137.97;4998791;28;45450;-78
2021/12/06 10:53:11;;;;;;;;;12.00;10.00;;;;;9.21;100.00;101128.53;5016608;28;45694;-78
2021/12/06 10:55:37;;;;;;;;;12.00;10.00;;;;;9.21;100.00;101121.69;5015905;28;45839;-78
2021/12/06 10:58:11;;;;;;;;;11.00;8.75;;;;;9.17;100.00;101119.72;4997947;28;45304;-79
2021/12/06 11:01:04;;;;;;;;;10.50;9.00;;;;;9.17;100.00;101121.44;5015714;28;45281;-77
2021/12/06 11:03:42;;;;;;;;;10.75;10.50;;;;;9.20;100.00;101126.75;5015476;28;46034;-79
2021/12/06 11:06:12;;;;;;;;;11.25;10.25;;;;;9.26;100.00;101121.94;5015940;28;45461;-81
2021/12/06 11:08:39;;;;;;;;;8.50;8.50;;;;;9.28;100.00;101117.75;5015667;28;45428;-80
2021/12/06 11:11:23;;;;;;;;;9.00;8.00;;;;;9.33;100.00;101121.44;5015959;28;45306;-83
2021/12/06 11:13:53;;;;;;;;;11.50;9.50;;;;;9.37;100.00;101118.25;5015348;28;46285;-79
2021/12/06 11:16:27;;;;;;;;;4.50;4.50;;;;;9.29;100.00;101104.91;5015755;28;45389;-80
2021/12/06 11:19:05;;;;;;;;;8.75;6.75;;;;;9.41;100.00;101115.00;4998542;28;45280;-79
2021/12/06 11:21:42;;;;;;;;;5.00;4.00;;;;;9.28;100.00;101095.38;5015580;28;45409;-79
2021/12/06 11:24:20;;;;;;;;;9.25;8.75;;;;;9.39;100.00;101115.72;5016586;28;46085;-80
2021/12/06 11:26:58;;;;;;;;;9.75;9.75;;;;;9.40;100.00;101115.81;5019526;28;45296;-80
2021/12/06 11:29:33;;;;;;;;;10.50;8.75;;;;;9.47;100.00;101122.19;5020366;28;45531;-84
2021/12/06 11:32:10;;;;;;;;;10.00;9.00;;;;;9.53;100.00;101117.38;5020353;28;45376;-79
2021/12/06 11:34:44;;;;;;;;;6.00;5.00;;;;;9.58;100.00;101100.41;5019063;28;45451;-80
2021/12/06 11:37:34;;;;;;;;;12.00;10.75;;;;;9.60;100.00;101093.63;5019246;28;45292;-79
2021/12/06 11:40:17;;;;;;;;;10.25;10.00;;;;;9.64;100.00;101084.31;5019476;28;45361;-85
2021/12/06 11:42:59;;;;;;;;;11.00;9.00;;;;;9.69;100.00;101069.06;5019136;28;45337;-81